createdAt,value
2022-12-25T00:00:31.437Z,6.93
2022-12-25T00:03:06.054Z,6.71
2022-12-25T00:05:40.709Z,6.80
2022-12-25T00:08:15.289Z,6.92
2022-12-25T00:10:58.752Z,6.80
2022-12-25T00:13:33.457Z,6.71
2022-12-25T00:16:09.341Z,6.79
2022-12-25T00:18:44.268Z,6.78
2022-12-25T00:21:19.206Z,6.81
2022-12-25T00:23:55.758Z,6.94
2022-12-25T00:26:31.425Z,6.98
2022-12-25T00:29:06.307Z,6.99
2022-12-25T00:31:40.622Z,7.07
2022-12-25T00:34:15.133Z,7.09
2022-12-25T00:36:51.631Z,7.10
2022-12-25T00:39:26.379Z,7.14
2022-12-25T00:42:20.277Z,7.13
2022-12-25T00:44:54.846Z,7.11
2022-12-25T00:47:29.112Z,7.07
2022-12-25T00:50:03.604Z,7.12
2022-12-25T00:52:37.850Z,7.05
2022-12-25T00:55:12.249Z,6.79
2022-12-25T00:57:47.862Z,6.79
2022-12-25T01:00:25.006Z,6.72
2022-12-25T01:02:59.316Z,6.82
2022-12-25T01:05:34.044Z,6.95
2022-12-25T01:08:08.246Z,6.90
2022-12-25T01:10:41.701Z,6.91
2022-12-25T01:13:17.269Z,6.79
2022-12-25T01:15:52.215Z,6.80
2022-12-25T01:18:27.292Z,6.88
2022-12-25T01:21:07.454Z,6.96
2022-12-25T01:23:41.926Z,7.01
2022-12-25T01:26:18.447Z,7.04
2022-12-25T01:28:54.867Z,7.07
2022-12-25T01:31:29.597Z,7.13
2022-12-25T01:34:03.974Z,7.09
2022-12-25T01:36:38.632Z,7.11
2022-12-25T01:39:12.884Z,6.91
2022-12-25T01:41:48.242Z,6.78
2022-12-25T01:44:59.451Z,6.69
2022-12-25T01:47:35.457Z,6.75
2022-12-25T01:50:10.601Z,6.49
2022-12-25T01:52:45.567Z,6.60
2022-12-25T01:55:19.853Z,6.67
2022-12-25T01:57:54.602Z,6.60
2022-12-25T02:00:29.042Z,6.67
2022-12-25T02:03:06.200Z,6.74
2022-12-25T02:05:41.114Z,6.73
2022-12-25T02:08:18.877Z,6.73
2022-12-25T02:10:53.107Z,6.84
2022-12-25T02:13:27.650Z,6.84
2022-12-25T02:16:11.182Z,6.84
2022-12-25T02:18:53.133Z,6.79
2022-12-25T02:21:54.474Z,6.67
2022-12-25T02:24:53.671Z,6.64
2022-12-25T02:27:53.849Z,6.72
2022-12-25T02:30:35.525Z,6.42
2022-12-25T02:33:34.402Z,6.50
2022-12-25T02:36:12.646Z,6.52
2022-12-25T02:39:07.549Z,6.61
2022-12-25T02:41:46.288Z,6.76
2022-12-25T02:44:43.850Z,6.86
2022-12-25T02:47:37.224Z,6.70
2022-12-25T02:50:29.992Z,6.65
2022-12-25T02:53:22.858Z,6.68
2022-12-25T02:56:15.579Z,6.73
2022-12-25T02:59:08.640Z,6.60
2022-12-25T03:02:03.917Z,6.50
2022-12-25T03:04:57.895Z,6.63
2022-12-25T03:07:34.016Z,6.63
2022-12-25T03:10:30.886Z,6.54
2022-12-25T03:13:11.392Z,6.40
2022-12-25T03:16:03.736Z,6.49
2022-12-25T03:18:39.470Z,6.54
2022-12-25T03:21:31.592Z,6.65
2022-12-25T03:24:24.167Z,6.65
2022-12-25T03:26:58.883Z,6.55
2022-12-25T03:29:52.348Z,6.67
2022-12-25T03:32:38.924Z,6.40
2022-12-25T03:35:23.766Z,6.50
2022-12-25T03:38:30.886Z,6.52
2022-12-25T03:41:30.324Z,6.45
2022-12-25T03:44:29.469Z,6.48
2022-12-25T03:47:25.978Z,6.52
2022-12-25T03:50:24.726Z,6.56
2022-12-25T03:53:20.421Z,6.46
2022-12-25T03:56:13.934Z,6.42
2022-12-25T03:59:11.128Z,6.46
2022-12-25T04:02:03.283Z,6.42
2022-12-25T04:04:55.491Z,6.31
2022-12-25T04:07:47.153Z,6.39
2022-12-25T04:10:40.687Z,6.39
2022-12-25T04:13:32.513Z,6.29
2022-12-25T04:16:24.103Z,6.15
2022-12-25T04:19:15.759Z,6.22
2022-12-25T04:22:07.989Z,6.23
2022-12-25T04:25:11.346Z,6.29
2022-12-25T04:28:04.815Z,6.32
2022-12-25T04:30:56.546Z,6.36
2022-12-25T04:33:48.883Z,6.35
2022-12-25T04:36:23.365Z,6.17
2022-12-25T04:38:57.768Z,6.32
2022-12-25T04:41:31.885Z,6.31
2022-12-25T04:44:07.758Z,6.29
2022-12-25T04:46:42.031Z,6.24
2022-12-25T04:49:16.538Z,6.20
2022-12-25T04:51:50.816Z,6.22
2022-12-25T04:54:25.276Z,6.35
2022-12-25T04:56:59.375Z,6.34
2022-12-25T04:59:35.168Z,6.27
2022-12-25T05:02:09.491Z,6.33
2022-12-25T05:04:44.083Z,6.22
2022-12-25T05:07:18.199Z,6.31
2022-12-25T05:09:52.726Z,6.53
2022-12-25T05:12:26.931Z,6.24
2022-12-25T05:15:02.724Z,6.13
2022-12-25T05:17:37.591Z,6.14
2022-12-25T05:20:12.469Z,5.82
2022-12-25T05:22:46.649Z,6.05
2022-12-25T05:25:21.056Z,6.03
2022-12-25T05:27:55.327Z,5.91
2022-12-25T05:30:31.206Z,5.80
2022-12-25T05:33:05.510Z,5.90
2022-12-25T05:35:40.873Z,5.87
2022-12-25T05:38:15.445Z,5.71
2022-12-25T05:40:52.565Z,5.81
2022-12-25T05:43:27.295Z,5.99
2022-12-25T05:46:07.641Z,5.96
2022-12-25T05:48:41.939Z,6.01
2022-12-25T05:51:16.442Z,5.86
2022-12-25T05:53:50.582Z,6.06
2022-12-25T05:56:25.026Z,5.96
2022-12-25T05:58:59.303Z,5.84
2022-12-25T06:01:35.288Z,5.75
2022-12-25T06:04:12.738Z,5.70
2022-12-25T06:06:47.363Z,5.63
2022-12-25T06:09:22.225Z,5.61
2022-12-25T06:11:56.308Z,5.74
2022-12-25T06:14:30.810Z,5.86
2022-12-25T06:17:06.409Z,6.11
2022-12-25T06:19:41.091Z,5.92
2022-12-25T06:22:15.250Z,5.75
2022-12-25T06:24:49.786Z,5.79
2022-12-25T06:27:23.847Z,5.84
2022-12-25T06:29:58.427Z,5.66
2022-12-25T06:32:34.049Z,5.75
2022-12-25T06:35:09.266Z,5.63
2022-12-25T06:37:43.384Z,5.68
2022-12-25T06:40:18.493Z,5.71
2022-12-25T06:42:53.129Z,5.60
2022-12-25T06:45:27.837Z,5.65
2022-12-25T06:48:03.508Z,5.80
2022-12-25T06:50:38.033Z,5.97
2022-12-25T06:53:12.159Z,6.04
2022-12-25T06:55:46.525Z,6.15
2022-12-25T06:58:20.744Z,6.17
2022-12-25T07:00:55.241Z,6.29
2022-12-25T07:03:31.601Z,6.37
2022-12-25T07:06:06.217Z,6.43
2022-12-25T07:08:40.425Z,6.37
2022-12-25T07:11:15.030Z,6.42
2022-12-25T07:13:49.401Z,6.46
2022-12-25T07:16:24.119Z,6.52
2022-12-25T07:19:02.002Z,6.49
2022-12-25T07:21:36.399Z,6.49
2022-12-25T07:24:10.904Z,6.59
2022-12-25T07:26:45.366Z,6.63
2022-12-25T07:29:19.896Z,6.61
2022-12-25T07:31:54.470Z,9.28
2022-12-25T07:34:30.093Z,10.11
2022-12-25T07:37:04.605Z,8.92
2022-12-25T07:39:38.887Z,8.41
2022-12-25T07:42:14.336Z,8.07
2022-12-25T07:44:48.413Z,7.92
2022-12-25T07:47:22.919Z,7.76
2022-12-25T07:49:58.470Z,7.73
2022-12-25T07:52:38.048Z,7.85
2022-12-25T07:55:16.174Z,7.52
2022-12-25T07:57:51.139Z,7.52
2022-12-25T08:00:29.714Z,7.47
2022-12-25T08:03:04.696Z,7.41
2022-12-25T08:05:40.466Z,7.56
2022-12-25T08:08:15.027Z,7.48
2022-12-25T08:10:49.767Z,7.69
2022-12-25T08:13:24.581Z,7.53
2022-12-25T08:15:59.311Z,7.62
2022-12-25T08:18:33.978Z,7.62
2022-12-25T08:21:11.643Z,7.38
2022-12-25T08:23:47.631Z,7.44
2022-12-25T08:26:23.847Z,7.50
2022-12-25T08:28:58.993Z,7.61
2022-12-25T08:31:37.177Z,7.82
2022-12-25T08:34:14.063Z,7.77
2022-12-25T08:36:49.754Z,8.01
2022-12-25T08:39:24.658Z,8.11
2022-12-25T08:41:59.487Z,8.03
2022-12-25T08:44:34.105Z,8.04
2022-12-25T08:47:08.623Z,8.22
2022-12-25T08:49:43.528Z,8.34
2022-12-25T08:52:19.408Z,11.01
2022-12-25T08:54:54.140Z,10.96
2022-12-25T08:57:28.329Z,12.35
2022-12-25T09:00:03.118Z,11.95
2022-12-25T09:02:37.827Z,10.80
2022-12-25T09:05:12.438Z,10.06
2022-12-25T09:07:48.066Z,9.63
2022-12-25T09:10:24.213Z,9.30
2022-12-25T09:12:58.491Z,9.00
2022-12-25T09:15:33.466Z,8.91
2022-12-25T09:18:08.033Z,9.07
2022-12-25T09:20:42.984Z,9.16
2022-12-25T09:23:18.668Z,9.17
2022-12-25T09:25:53.517Z,9.26
2022-12-25T09:28:27.790Z,9.18
2022-12-25T09:31:02.496Z,9.18
2022-12-25T09:33:36.717Z,9.24
2022-12-25T09:36:12.381Z,9.25
2022-12-25T09:38:48.094Z,9.31
2022-12-25T09:41:29.849Z,9.46
2022-12-25T09:44:08.141Z,9.60
2022-12-25T09:46:46.074Z,9.77
2022-12-25T09:49:25.420Z,9.94
2022-12-25T09:52:06.660Z,10.23
2022-12-25T09:54:50.879Z,10.94
2022-12-25T09:57:26.934Z,13.04
2022-12-25T10:00:01.395Z,12.28
2022-12-25T10:03:10.411Z,12.10
2022-12-25T10:06:12.252Z,12.02
2022-12-25T10:09:10.295Z,13.27
2022-12-25T10:11:56.911Z,12.74
2022-12-25T10:14:42.249Z,12.51
2022-12-25T10:17:32.106Z,12.40
2022-12-25T10:20:17.169Z,12.37
2022-12-25T10:22:55.877Z,12.34
2022-12-25T10:25:30.170Z,12.21
2022-12-25T10:28:14.297Z,12.29
2022-12-25T10:30:51.668Z,12.30
2022-12-25T10:33:26.636Z,12.24
2022-12-25T10:36:01.165Z,12.00
2022-12-25T10:38:36.714Z,12.06
2022-12-25T10:41:22.823Z,12.05
2022-12-25T10:43:59.227Z,12.03
2022-12-25T10:46:33.585Z,11.98
2022-12-25T10:49:16.447Z,11.96
2022-12-25T10:51:51.857Z,11.99
2022-12-25T10:54:29.164Z,11.94
2022-12-25T10:57:05.370Z,11.87
2022-12-25T10:59:45.976Z,11.84
2022-12-25T11:02:26.313Z,11.89
2022-12-25T11:05:03.747Z,12.19
2022-12-25T11:07:46.868Z,12.17
2022-12-25T11:10:24.293Z,12.31
2022-12-25T11:12:59.403Z,12.44
2022-12-25T11:15:39.749Z,14.04
2022-12-25T11:18:21.668Z,14.67
2022-12-25T11:20:58.141Z,13.74
2022-12-25T11:23:33.859Z,13.08
2022-12-25T11:26:09.509Z,12.83
2022-12-25T11:28:45.852Z,12.96
2022-12-25T11:31:24.226Z,12.59
2022-12-25T11:34:04.682Z,12.35
2022-12-25T11:36:45.037Z,12.15
2022-12-25T11:39:23.349Z,12.09
2022-12-25T11:42:03.173Z,11.90
2022-12-25T11:44:46.384Z,11.90
2022-12-25T11:47:34.205Z,11.85
2022-12-25T11:50:23.594Z,11.71
2022-12-25T11:53:01.250Z,11.64
2022-12-25T11:55:42.186Z,11.57
2022-12-25T11:58:21.452Z,11.50
2022-12-25T12:00:58.538Z,11.46
2022-12-25T12:03:38.634Z,11.44
2022-12-25T12:06:19.252Z,11.59
2022-12-25T12:08:59.574Z,11.43
2022-12-25T12:11:38.034Z,11.35
2022-12-25T12:14:24.467Z,11.58
2022-12-25T12:16:58.747Z,11.45
2022-12-25T12:19:35.583Z,11.46
2022-12-25T12:22:20.006Z,11.55
2022-12-25T12:25:01.493Z,11.56
2022-12-25T12:27:38.821Z,11.43
2022-12-25T12:30:26.836Z,12.10
2022-12-25T12:33:03.084Z,12.18
2022-12-25T12:35:41.254Z,11.72
2022-12-25T12:38:19.009Z,11.54
2022-12-25T12:40:56.784Z,11.35
2022-12-25T12:43:37.871Z,11.40
2022-12-25T12:46:26.121Z,11.36
2022-12-25T12:49:11.532Z,11.40
2022-12-25T12:51:47.512Z,11.22
2022-12-25T12:54:23.826Z,11.28
2022-12-25T12:57:00.284Z,11.24
2022-12-25T12:59:40.202Z,11.16
2022-12-25T13:02:38.957Z,11.20
2022-12-25T13:05:21.606Z,11.23
2022-12-25T13:08:08.463Z,11.24
2022-12-25T13:10:48.297Z,11.25
2022-12-25T13:13:28.636Z,11.27
2022-12-25T13:16:03.154Z,11.32
2022-12-25T13:18:41.027Z,11.49
2022-12-25T13:21:20.766Z,11.36
2022-12-25T13:24:01.620Z,11.36
2022-12-25T13:26:36.489Z,11.39
2022-12-25T13:29:23.667Z,11.15
2022-12-25T13:31:58.849Z,11.23
2022-12-25T13:34:37.579Z,11.06
2022-12-25T13:37:16.399Z,10.97
2022-12-25T13:39:54.938Z,10.96
2022-12-25T13:42:32.061Z,11.02
2022-12-25T13:45:19.718Z,11.02
2022-12-25T13:47:55.853Z,10.95
2022-12-25T13:50:33.222Z,10.96
2022-12-25T13:53:12.683Z,10.96
2022-12-25T13:55:52.593Z,10.98
2022-12-25T13:58:30.035Z,10.98
2022-12-25T14:01:05.006Z,10.85
2022-12-25T14:03:42.978Z,10.88
2022-12-25T14:06:20.499Z,10.76
2022-12-25T14:08:57.169Z,10.83
2022-12-25T14:11:33.599Z,10.79
2022-12-25T14:14:15.972Z,10.84
2022-12-25T14:16:53.547Z,10.74
2022-12-25T14:19:29.738Z,10.89
2022-12-25T14:22:10.918Z,10.81
2022-12-25T14:24:45.750Z,10.75
2022-12-25T14:27:23.455Z,10.71
2022-12-25T14:30:00.270Z,10.76
2022-12-25T14:32:43.192Z,10.73
2022-12-25T14:35:23.318Z,10.73
2022-12-25T14:38:01.246Z,10.67
2022-12-25T14:40:36.189Z,10.73
2022-12-25T14:43:25.280Z,10.67
2022-12-25T14:46:02.125Z,10.67
2022-12-25T14:48:36.351Z,10.60
2022-12-25T14:51:18.497Z,10.71
2022-12-25T14:53:56.092Z,11.57
2022-12-25T14:56:38.163Z,13.00
2022-12-25T14:59:20.152Z,13.64
2022-12-25T15:01:59.276Z,12.34
2022-12-25T15:04:33.909Z,11.81
2022-12-25T15:07:24.803Z,11.49
2022-12-25T15:10:27.204Z,11.29
2022-12-25T15:12:53.849Z,10.97
2022-12-25T15:15:30.905Z,10.92
2022-12-25T15:18:06.256Z,10.80
2022-12-25T15:20:40.722Z,10.73
2022-12-25T15:23:19.670Z,10.69
2022-12-25T15:25:54.421Z,10.57
2022-12-25T15:28:29.043Z,10.54
2022-12-25T15:31:04.729Z,10.44
2022-12-25T15:33:43.950Z,10.41
2022-12-25T15:36:18.631Z,10.39
2022-12-25T15:38:53.946Z,10.37
2022-12-25T15:41:48.757Z,10.23
2022-12-25T15:44:23.842Z,10.81
2022-12-25T15:46:59.465Z,11.53
2022-12-25T15:49:33.991Z,10.92
2022-12-25T15:52:09.282Z,10.70
2022-12-25T15:54:44.137Z,10.46
2022-12-25T15:57:21.716Z,10.39
2022-12-25T15:59:56.182Z,10.22
2022-12-25T16:02:32.028Z,10.13
2022-12-25T16:05:10.508Z,10.13
2022-12-25T16:07:44.991Z,10.01
2022-12-25T16:10:20.762Z,10.05
2022-12-25T16:12:54.969Z,10.00
2022-12-25T16:15:29.613Z,9.97
2022-12-25T16:18:05.579Z,10.04
2022-12-25T16:20:40.155Z,10.01
2022-12-25T16:23:14.343Z,9.94
2022-12-25T16:25:48.977Z,9.91
2022-12-25T16:28:23.246Z,9.95
2022-12-25T16:30:58.749Z,9.90
2022-12-25T16:33:34.752Z,10.43
2022-12-25T16:36:10.142Z,10.74
2022-12-25T16:38:44.567Z,10.29
2022-12-25T16:41:19.099Z,10.11
2022-12-25T16:43:53.391Z,10.00
2022-12-25T16:46:27.856Z,9.99
2022-12-25T16:49:03.558Z,9.80
2022-12-25T16:51:38.289Z,9.71
2022-12-25T16:54:12.420Z,9.68
2022-12-25T16:56:46.904Z,9.63
2022-12-25T16:59:21.527Z,9.59
2022-12-25T17:01:56.186Z,9.46
2022-12-25T17:04:31.830Z,9.39
2022-12-25T17:07:06.367Z,9.50
2022-12-25T17:09:44.308Z,9.46
2022-12-25T17:12:19.187Z,9.35
2022-12-25T17:14:53.795Z,9.37
2022-12-25T17:17:28.411Z,9.38
2022-12-25T17:20:04.653Z,9.32
2022-12-25T17:22:39.423Z,9.28
2022-12-25T17:25:13.594Z,9.28
2022-12-25T17:27:50.748Z,9.22
2022-12-25T17:30:25.281Z,9.32
2022-12-25T17:32:59.770Z,9.27
2022-12-25T17:35:38.262Z,9.18
2022-12-25T17:38:12.824Z,9.18
2022-12-25T17:40:46.978Z,11.40
2022-12-25T17:43:21.452Z,12.48
2022-12-25T17:45:55.649Z,11.88
2022-12-25T17:48:30.243Z,11.07
2022-12-25T17:51:07.676Z,10.49
2022-12-25T17:53:44.203Z,10.24
2022-12-25T17:56:19.483Z,9.96
2022-12-25T17:58:55.820Z,9.77
2022-12-25T18:01:30.356Z,11.86
2022-12-25T18:04:06.327Z,11.05
2022-12-25T18:06:41.981Z,10.50
2022-12-25T18:09:16.628Z,10.20
2022-12-25T18:11:50.884Z,9.85
2022-12-25T18:14:25.469Z,9.67
2022-12-25T18:16:59.688Z,9.59
2022-12-25T18:19:34.411Z,9.49
2022-12-25T18:22:10.060Z,9.43
2022-12-25T18:24:44.813Z,9.31
2022-12-25T18:27:19.288Z,9.37
2022-12-25T18:29:54.044Z,9.38
2022-12-25T18:32:28.472Z,9.44
2022-12-25T18:35:03.053Z,9.32
2022-12-25T18:37:40.270Z,9.41
2022-12-25T18:40:15.535Z,9.38
2022-12-25T18:42:52.917Z,9.47
2022-12-25T18:45:29.809Z,9.57
2022-12-25T18:48:06.345Z,9.42
2022-12-25T18:50:41.698Z,9.37
2022-12-25T18:53:17.410Z,9.43
2022-12-25T18:55:52.146Z,10.45
2022-12-25T18:58:28.415Z,11.91
2022-12-25T19:01:10.591Z,11.80
2022-12-25T19:03:45.957Z,10.99
2022-12-25T19:06:22.265Z,10.54
2022-12-25T19:08:59.783Z,10.27
2022-12-25T19:11:36.820Z,9.96
2022-12-25T19:14:14.787Z,9.93
2022-12-25T19:16:49.440Z,9.98
2022-12-25T19:19:24.065Z,9.93
2022-12-25T19:21:59.820Z,9.71
2022-12-25T19:24:37.243Z,9.82
2022-12-25T19:27:11.949Z,9.75
2022-12-25T19:29:46.522Z,9.61
2022-12-25T19:32:22.088Z,9.62
2022-12-25T19:34:56.780Z,9.54
2022-12-25T19:37:31.294Z,9.60
2022-12-25T19:40:08.633Z,9.80
2022-12-25T19:42:43.532Z,9.72
2022-12-25T19:45:17.890Z,9.61
2022-12-25T19:47:52.989Z,9.59
2022-12-25T19:50:28.712Z,9.61
2022-12-25T19:53:03.967Z,9.41
2022-12-25T19:55:40.479Z,9.48
2022-12-25T19:58:15.876Z,9.52
2022-12-25T20:00:58.839Z,9.43
2022-12-25T20:03:37.528Z,9.49
2022-12-25T20:06:26.161Z,9.64
2022-12-25T20:09:03.000Z,10.76
2022-12-25T20:11:39.411Z,11.03
2022-12-25T20:14:19.683Z,11.93
2022-12-25T20:16:54.281Z,11.34
2022-12-25T20:19:29.040Z,10.60
2022-12-25T20:22:03.459Z,10.28
2022-12-25T20:24:38.344Z,9.94
2022-12-25T20:27:14.369Z,9.80
2022-12-25T20:29:49.425Z,9.70
2022-12-25T20:32:23.929Z,9.68
2022-12-25T20:34:58.903Z,9.44
2022-12-25T20:37:33.489Z,9.52
2022-12-25T20:40:09.534Z,9.55
2022-12-25T20:42:46.790Z,9.54
2022-12-25T20:45:21.232Z,9.49
2022-12-25T20:47:55.378Z,9.38
2022-12-25T20:50:29.995Z,9.40
2022-12-25T20:53:05.270Z,9.43
2022-12-25T20:55:44.840Z,9.35
2022-12-25T20:58:20.413Z,9.32
2022-12-25T21:00:55.016Z,9.36
2022-12-25T21:03:29.446Z,9.31
2022-12-25T21:06:03.997Z,9.31
2022-12-25T21:08:39.167Z,9.27
2022-12-25T21:11:15.641Z,9.30
2022-12-25T21:13:51.540Z,9.29
2022-12-25T21:16:26.881Z,9.34
2022-12-25T21:19:01.109Z,9.35
2022-12-25T21:21:36.577Z,9.32
2022-12-25T21:24:11.468Z,9.39
2022-12-25T21:26:48.134Z,9.31
2022-12-25T21:29:25.418Z,9.35
2022-12-25T21:32:17.806Z,9.37
2022-12-25T21:34:52.954Z,9.41
2022-12-25T21:37:27.738Z,9.45
2022-12-25T21:40:02.955Z,9.39
2022-12-25T21:42:37.373Z,9.35
2022-12-25T21:45:12.948Z,9.37
2022-12-25T21:48:02.737Z,9.42
2022-12-25T21:50:56.323Z,9.36
2022-12-25T21:53:30.756Z,9.32
2022-12-25T21:56:05.844Z,9.36
2022-12-25T21:58:40.834Z,9.47
2022-12-25T22:01:16.946Z,9.45
2022-12-25T22:03:51.809Z,9.44
2022-12-25T22:06:43.635Z,9.39
2022-12-25T22:09:18.833Z,9.41
2022-12-25T22:12:10.377Z,9.41
2022-12-25T22:14:56.293Z,9.42
2022-12-25T22:17:52.632Z,9.38
2022-12-25T22:20:30.214Z,9.38
2022-12-25T22:23:05.165Z,9.35
2022-12-25T22:25:39.660Z,9.38
2022-12-25T22:28:13.766Z,9.24
2022-12-25T22:30:48.527Z,10.90
2022-12-25T22:33:25.640Z,11.26
2022-12-25T22:36:03.284Z,10.64
2022-12-25T22:38:37.929Z,10.26
2022-12-25T22:41:12.368Z,9.95
2022-12-25T22:44:16.685Z,9.75
2022-12-25T22:46:41.012Z,9.66
2022-12-25T22:49:17.098Z,9.52
2022-12-25T22:51:52.428Z,9.58
2022-12-25T22:54:29.901Z,9.50
2022-12-25T22:57:04.979Z,9.49
2022-12-25T22:59:39.242Z,9.35
2022-12-25T23:02:13.775Z,9.33
2022-12-25T23:04:49.733Z,9.20
2022-12-25T23:07:24.200Z,9.27
2022-12-25T23:09:59.342Z,9.17
2022-12-25T23:12:51.425Z,9.18
2022-12-25T23:15:27.755Z,9.12
2022-12-25T23:18:19.735Z,8.98
2022-12-25T23:21:18.927Z,9.01
2022-12-25T23:24:11.159Z,9.02
2022-12-25T23:26:45.578Z,9.04
2022-12-25T23:29:38.482Z,8.99
2022-12-25T23:32:14.725Z,8.95
2022-12-25T23:34:49.684Z,8.91
2022-12-25T23:37:25.207Z,8.87
2022-12-25T23:39:59.827Z,8.85
2022-12-25T23:42:34.162Z,8.80
2022-12-25T23:45:10.633Z,8.77
2022-12-25T23:47:44.793Z,8.84
2022-12-25T23:50:19.229Z,8.76
2022-12-25T23:52:54.976Z,8.77
2022-12-25T23:55:30.070Z,8.72
2022-12-25T23:58:04.169Z,8.64
